Time;durP1;ratioP1;P1;durP2;ratioP2;P2;SDS_P1;SDS_P2;PMS_P1;PMS_P2;Temp;Humidity;BMP_temperature;BMP_pressure;BME280_temperature;BME280_humidity;BME280_pressure;Samples;Min_cycle;Max_cycle;Signal;HPM_P1;HPM_P2
2023/01/24 00:01:53;;;;;;;53.22;49.05;;;;;;;0.86;100.00;102835.16;5002732;28;20046;-90
2023/01/24 00:04:46;;;;;;;56.25;51.80;;;;;;;0.74;100.00;102841.94;5014570;28;20050;-90
2023/01/24 00:07:14;;;;;;;54.45;50.25;;;;;;;0.69;100.00;102842.19;5004686;28;20057;-88
2023/01/24 00:09:49;;;;;;;50.92;46.83;;;;;;;0.82;100.00;102838.91;4999842;28;20498;-87
2023/01/24 00:12:43;;;;;;;53.83;49.33;;;;;;;0.87;100.00;102835.06;4995026;28;20489;-88
2023/01/24 00:15:29;;;;;;;54.67;50.45;;;;;;;0.71;100.00;102839.50;4995059;28;20050;-89
2023/01/24 00:18:09;;;;;;;53.50;49.33;;;;;;;0.75;100.00;102848.84;4994687;28;20061;-88
2023/01/24 00:20:37;;;;;;;56.65;52.05;;;;;;;0.82;100.00;102842.34;4995143;28;20174;-89
2023/01/24 00:23:25;;;;;;;51.58;47.63;;;;;;;0.71;100.00;102839.50;4994955;28;20046;-88
2023/01/24 00:26:09;;;;;;;51.90;47.67;;;;;;;0.84;100.00;102842.25;4995097;28;20050;-90
2023/01/24 00:28:45;;;;;;;53.63;49.42;;;;;;;0.81;100.00;102847.66;4992989;28;20053;-91
2023/01/24 00:31:25;;;;;;;57.92;53.47;;;;;;;0.96;100.00;102845.91;4975970;28;20051;-88
2023/01/24 00:34:04;;;;;;;53.95;49.85;;;;;;;0.80;100.00;102840.75;4994425;28;20108;-89
2023/01/24 00:36:45;;;;;;;56.40;52.20;;;;;;;0.80;100.00;102838.13;4994962;28;20120;-90
2023/01/24 00:39:27;;;;;;;52.40;48.13;;;;;;;0.88;100.00;102838.53;4994434;28;20097;-89
2023/01/24 00:42:02;;;;;;;52.28;48.00;;;;;;;0.83;100.00;102846.66;4994413;28;20050;-88
2023/01/24 00:45:06;;;;;;;56.58;52.08;;;;;;;0.96;100.00;102838.06;4978973;28;20051;-89
2023/01/24 00:47:43;;;;;;;59.05;54.63;;;;;;;1.49;100.00;102847.06;4988313;28;20054;-89
2023/01/24 00:50:22;;;;;;;52.53;48.50;;;;;;;0.83;100.00;102830.94;4994169;28;20050;-89
2023/01/24 00:53:02;;;;;;;57.17;53.40;;;;;;;1.29;100.00;102846.50;4985377;28;20054;-89
2023/01/24 00:55:54;;;;;;;58.70;55.10;;;;;;;1.62;100.00;102834.06;4993749;28;20054;-88
2023/01/24 00:59:15;;;;;;;55.60;52.27;;;;;;;1.30;100.00;102829.00;4994261;28;20066;-89
2023/01/24 01:02:11;;;;;;;61.70;58.05;;;;;;;1.03;100.00;102840.25;4994114;28;20042;-89
2023/01/24 01:04:45;;;;;;;62.13;58.50;;;;;;;2.13;100.00;102829.06;4994173;28;20061;-89
2023/01/24 01:07:22;;;;;;;50.60;47.70;;;;;;;1.24;100.00;102837.25;4992700;28;20136;-89
2023/01/24 01:09:51;;;;;;;58.03;54.72;;;;;;;0.96;100.00;102833.66;5013891;28;20054;-89
2023/01/24 01:12:52;;;;;;;55.83;52.42;;;;;;;0.93;100.00;102835.63;5013776;28;20472;-88
2023/01/24 01:15:34;;;;;;;53.67;50.50;;;;;;;0.90;100.00;102831.41;5013330;28;20476;-90
2023/01/24 01:18:25;;;;;;;;;;;;;;;0.79;100.00;102834.69;5008477;28;20108;-88
2023/01/24 01:20:55;;;;;;;50.75;47.55;;;;;;;1.35;100.00;102832.19;5013575;28;19925;-89
2023/01/24 01:26:43;;;;;;;52.75;49.15;;;;;;;0.72;100.00;102825.50;5013145;28;20091;-87
2023/01/24 01:29:50;;;;;;;51.33;48.05;;;;;;;0.65;100.00;102826.78;5007199;28;20449;-89
2023/01/24 01:32:33;;;;;;;58.30;54.60;;;;;;;0.65;100.00;102819.78;5009036;28;20050;-89
2023/01/24 01:35:11;;;;;;;57.42;53.83;;;;;;;1.31;100.00;102810.59;5013203;28;20050;-89
2023/01/24 01:37:50;;;;;;;62.50;58.72;;;;;;;1.48;100.00;102814.78;5013329;28;20045;-89
2023/01/24 01:40:42;;;;;;;54.50;51.28;;;;;;;1.03;100.00;102814.06;5013619;28;20054;-89
2023/01/24 01:43:14;;;;;;;59.27;55.37;;;;;;;0.79;100.00;102818.16;4983888;28;20054;-89
2023/01/24 01:45:44;;;;;;;;;;;;;;;0.86;100.00;102812.44;4994137;28;20046;-88
2023/01/24 01:48:35;;;;;;;54.42;50.88;;;;;;;1.36;100.00;102808.56;5011941;28;19922;-89
2023/01/24 01:51:13;;;;;;;54.17;50.72;;;;;;;1.54;100.00;102806.56;4993739;28;20054;-89
2023/01/24 01:53:48;;;;;;;53.35;49.95;;;;;;;1.14;100.00;102808.16;5004404;28;20046;-89
2023/01/24 01:56:29;;;;;;;58.20;54.50;;;;;;;0.68;100.00;102803.06;5013141;28;20440;-90
2023/01/24 01:59:10;;;;;;;63.60;59.08;;;;;;;0.66;100.00;102804.94;5012928;28;20057;-88
2023/01/24 02:01:48;;;;;;;63.03;58.72;;;;;;;1.17;100.00;102810.59;4995140;28;20050;-88
2023/01/24 02:04:27;;;;;;;63.38;58.88;;;;;;;0.63;100.00;102797.25;4999981;28;20104;-89
2023/01/24 02:07:05;;;;;;;58.58;54.45;;;;;;;0.61;100.00;102804.38;5012846;28;20054;-88
2023/01/24 02:09:41;;;;;;;61.88;57.38;;;;;;;0.58;100.00;102810.63;5012441;28;20054;-90
2023/01/24 02:12:23;;;;;;;57.70;53.35;;;;;;;0.45;100.00;102800.03;5012654;28;20104;-90
2023/01/24 02:18:00;;;;;;;65.45;60.33;;;;;;;0.63;100.00;102807.72;5012832;28;20108;-89
2023/01/24 02:20:45;;;;;;;57.00;52.63;;;;;;;0.49;100.00;102820.78;5012714;28;20045;-89
2023/01/24 02:23:25;;;;;;;58.95;54.25;;;;;;;0.54;100.00;102821.34;5012659;28;20050;-89
2023/01/24 02:26:12;;;;;;;63.40;58.67;;;;;;;0.64;100.00;102809.44;5012878;28;20088;-88
2023/01/24 02:28:41;;;;;;;62.20;57.53;;;;;;;0.48;100.00;102822.53;4993032;28;20046;-90
2023/01/24 02:31:15;;;;;;;68.90;63.90;;;;;;;0.48;100.00;102817.31;4999808;28;20111;-90
2023/01/24 02:33:56;;;;;;;64.10;59.40;;;;;;;0.43;100.00;102825.44;4992936;28;20101;-89
2023/01/24 02:36:37;;;;;;;61.58;57.17;;;;;;;0.48;100.00;102825.16;4992970;28;20051;-88
2023/01/24 02:39:21;;;;;;;57.97;53.75;;;;;;;0.36;100.00;102816.22;4993093;28;20050;-89
2023/01/24 02:42:00;;;;;;;59.60;55.13;;;;;;;0.33;100.00;102826.03;4997812;28;20043;-88
2023/01/24 02:44:36;;;;;;;64.35;59.80;;;;;;;0.31;100.00;102826.13;5010445;28;20081;-88
2023/01/24 02:47:11;;;;;;;67.60;62.58;;;;;;;0.49;100.00;102821.63;4993145;28;20487;-90
2023/01/24 02:58:54;;;;;;;57.80;53.00;;;;;;;0.26;100.00;102829.94;4997705;28;20604;-89
2023/01/24 03:01:38;;;;;;;65.32;60.35;;;;;;;0.42;100.00;102835.97;5014742;28;20497;-90
2023/01/24 03:08:13;;;;;;;59.15;54.45;;;;;;;0.20;100.00;102834.56;5014493;28;20033;-88
2023/01/24 03:10:47;;;;;;;58.67;54.15;;;;;;;0.11;100.00;102823.78;5015826;28;20049;-89
2023/01/24 03:34:49;;;;;;;60.38;55.92;;;;;;;0.13;100.00;102835.84;4996001;28;20049;-88
2023/01/24 03:40:20;;;;;;;51.92;47.83;;;;;;;-0.09;100.00;102846.66;4974459;28;20109;-89
2023/01/24 03:42:56;;;;;;;53.17;49.13;;;;;;;-0.06;100.00;102843.88;4994076;28;20054;-88
2023/01/24 03:45:37;;;;;;;55.60;51.00;;;;;;;0.02;100.00;102850.44;4995459;28;20050;-90
2023/01/24 03:48:25;;;;;;;56.47;52.28;;;;;;;-0.08;100.00;102850.13;4995320;28;20125;-89
2023/01/24 03:53:40;;;;;;;52.42;48.42;;;;;;;-0.09;100.00;102864.94;5092546;27;20408;-79
2023/01/24 03:56:07;;;;;;;51.80;47.92;;;;;;;-0.03;100.00;102866.34;5072486;28;20049;-79
2023/01/24 03:58:33;;;;;;;55.33;51.13;;;;;;;-0.06;100.00;102872.63;5073970;28;20126;-79
2023/01/24 04:01:00;;;;;;;56.10;51.72;;;;;;;0.10;100.00;102863.94;5072576;28;20045;-80
2023/01/24 04:03:27;;;;;;;53.13;49.08;;;;;;;0.06;100.00;102870.22;5066078;28;20102;-79
2023/01/24 04:05:53;;;;;;;62.17;56.97;;;;;;;-0.04;100.00;102859.44;5070356;28;20701;-79
2023/01/24 04:08:20;;;;;;;55.63;51.33;;;;;;;-0.11;100.00;102865.94;5073546;28;20493;-79
2023/01/24 04:10:48;;;;;;;54.95;50.75;;;;;;;0.07;100.00;102871.94;5074253;28;20076;-79
2023/01/24 04:13:15;;;;;;;59.50;55.05;;;;;;;-0.01;100.00;102862.75;5076419;28;20049;-79
2023/01/24 04:15:42;;;;;;;56.75;52.47;;;;;;;-0.01;100.00;102861.91;5076215;28;20053;-79
2023/01/24 04:18:09;;;;;;;56.28;51.88;;;;;;;0.07;100.00;102867.56;5072997;28;20102;-79
2023/01/24 04:20:37;;;;;;;53.03;48.55;;;;;;;-0.05;100.00;102865.63;5072963;28;20499;-80
2023/01/24 04:23:06;;;;;;;54.78;50.50;;;;;;;0.01;100.00;102872.28;5075078;28;20095;-80
2023/01/24 04:25:33;;;;;;;53.63;49.28;;;;;;;0.10;100.00;102869.16;5076527;28;20488;-79
2023/01/24 04:28:01;;;;;;;52.72;48.40;;;;;;;0.05;100.00;102879.00;5076051;28;20048;-79
2023/01/24 04:30:28;;;;;;;51.63;47.60;;;;;;;-0.01;100.00;102874.97;5066156;28;20061;-80
2023/01/24 04:32:55;;;;;;;53.75;49.25;;;;;;;-0.09;100.00;102879.75;5069416;28;20110;-79
2023/01/24 04:35:24;;;;;;;59.08;54.40;;;;;;;0.02;100.00;102880.03;5071500;28;20049;-79
2023/01/24 04:37:51;;;;;;;54.10;50.10;;;;;;;0.03;100.00;102883.47;5075137;28;20052;-79
2023/01/24 04:40:18;;;;;;;54.40;49.95;;;;;;;0.08;100.00;102878.84;5075839;28;20102;-79
2023/01/24 04:42:45;;;;;;;52.38;48.45;;;;;;;0.05;100.00;102881.63;5075069;28;20049;-79
2023/01/24 04:45:13;;;;;;;51.85;47.65;;;;;;;0.04;100.00;102875.56;5073964;28;20049;-79
2023/01/24 04:47:39;;;;;;;54.97;50.58;;;;;;;-0.04;100.00;102877.75;5070241;28;20098;-80
2023/01/24 04:50:07;;;;;;;52.10;47.90;;;;;;;-0.12;100.00;102883.41;5073511;28;20535;-79
2023/01/24 04:52:34;;;;;;;57.15;52.72;;;;;;;-0.07;100.00;102888.38;5075395;28;20048;-79
2023/01/24 04:55:01;;;;;;;56.05;51.85;;;;;;;-0.05;100.00;102884.75;5073398;28;20052;-79
2023/01/24 04:57:28;;;;;;;55.75;51.25;;;;;;;-0.05;100.00;102876.91;5074349;28;20456;-79
2023/01/24 04:59:54;;;;;;;54.20;49.72;;;;;;;-0.11;100.00;102884.25;5073900;28;20045;-79
2023/01/24 05:02:22;;;;;;;56.78;52.17;;;;;;;0.06;100.00;102878.06;5066094;28;20048;-79
2023/01/24 05:04:49;;;;;;;58.45;53.47;;;;;;;0.03;100.00;102884.34;5055663;28;20045;-79
2023/01/24 05:07:16;;;;;;;55.25;50.53;;;;;;;-0.15;100.00;102882.69;5052419;28;20050;-78
2023/01/24 05:09:42;;;;;;;57.08;52.50;;;;;;;0.02;100.00;102895.69;5054455;28;20399;-79
2023/01/24 05:12:09;;;;;;;58.70;54.22;;;;;;;-0.12;100.00;102892.97;5058431;28;20045;-79
2023/01/24 05:14:36;;;;;;;58.53;53.80;;;;;;;-0.05;100.00;102887.34;5059407;28;20107;-80
2023/01/24 05:17:03;;;;;;;55.78;51.10;;;;;;;-0.06;100.00;102896.13;5055558;28;20118;-79
2023/01/24 05:19:31;;;;;;;57.85;53.42;;;;;;;-0.01;100.00;102885.41;5060221;28;20434;-79
2023/01/24 05:21:57;;;;;;;57.67;53.38;;;;;;;-0.07;100.00;102889.19;5054614;28;20049;-79
2023/01/24 05:24:24;;;;;;;54.15;50.00;;;;;;;0.00;100.00;102894.97;5049369;28;20048;-79
2023/01/24 05:26:51;;;;;;;54.05;49.95;;;;;;;-0.10;100.00;102894.59;5050230;28;20045;-79
2023/01/24 05:29:17;;;;;;;54.95;50.05;;;;;;;-0.10;100.00;102898.97;5054599;28;20052;-80
2023/01/24 05:31:44;;;;;;;56.30;51.58;;;;;;;-0.06;100.00;102892.66;5059813;28;20049;-80
2023/01/24 05:34:11;;;;;;;52.13;47.58;;;;;;;-0.11;100.00;102890.31;5053124;28;20122;-79
2023/01/24 05:36:39;;;;;;;55.45;50.75;;;;;;;-0.07;100.00;102894.44;5049087;28;20049;-79
2023/01/24 05:39:06;;;;;;;51.47;46.92;;;;;;;-0.07;100.00;102899.66;5054003;28;20053;-79
2023/01/24 05:41:32;;;;;;;53.10;48.72;;;;;;;0.05;100.00;102890.31;5055611;28;20041;-80
2023/01/24 05:43:59;;;;;;;49.15;45.05;;;;;;;1.97;100.00;102897.38;5048498;28;20096;-79
2023/01/24 05:46:28;;;;;;;50.30;46.35;;;;;;;0.03;100.00;102901.75;5055438;28;20124;-79
2023/01/24 05:48:54;;;;;;;51.60;47.10;;;;;;;0.05;100.00;102902.53;5052015;28;20049;-79
2023/01/24 05:51:21;;;;;;;54.05;49.47;;;;;;;0.04;100.00;102899.09;5056109;28;20067;-79
2023/01/24 05:53:49;;;;;;;53.00;48.80;;;;;;;0.01;100.00;102901.88;5054766;28;20114;-80
2023/01/24 05:56:18;;;;;;;51.92;47.35;;;;;;;0.10;100.00;102908.34;5049238;28;20045;-80
2023/01/24 05:58:46;;;;;;;51.33;47.00;;;;;;;0.04;100.00;102906.91;5049706;28;20071;-79
2023/01/24 06:01:16;;;;;;;49.67;45.63;;;;;;;0.06;100.00;102920.75;5054649;28;20049;-79
2023/01/24 06:03:44;;;;;;;50.40;46.28;;;;;;;0.06;100.00;102918.13;5054671;28;20756;-79
2023/01/24 06:06:11;;;;;;;51.17;46.85;;;;;;;-0.02;100.00;102913.31;5056189;28;20049;-79
2023/01/24 06:08:39;;;;;;;50.67;46.30;;;;;;;0.08;100.00;102920.66;5055326;28;20072;-79
2023/01/24 06:11:10;;;;;;;52.85;48.20;;;;;;;0.14;100.00;102925.53;5057896;28;20052;-79
2023/01/24 06:13:36;;;;;;;51.08;46.78;;;;;;;0.16;100.00;102911.47;5055812;28;20058;-79
2023/01/24 06:16:05;;;;;;;50.25;46.15;;;;;;;0.17;100.00;102931.44;5047032;28;20492;-80
2023/01/24 06:18:32;;;;;;;52.55;48.03;;;;;;;0.20;100.00;102909.53;5049780;28;20529;-80
2023/01/24 06:20:59;;;;;;;54.55;49.72;;;;;;;0.23;100.00;102919.81;5056130;28;20512;-79
2023/01/24 06:23:27;;;;;;;56.80;51.97;;;;;;;0.23;100.00;102928.50;5045089;28;20107;-79
2023/01/24 06:25:55;;;;;;;53.53;48.88;;;;;;;0.22;100.00;102939.03;5053144;28;20040;-79
2023/01/24 06:28:23;;;;;;;53.40;48.63;;;;;;;0.22;100.00;102932.03;5059506;28;20110;-79
2023/01/24 06:31:00;;;;;;;51.83;47.10;;;;;;;0.26;100.00;102937.09;5052558;28;20526;-79
2023/01/24 06:33:37;;;;;;;51.67;47.42;;;;;;;0.18;100.00;102927.06;5055894;28;20052;-79
2023/01/24 06:36:17;;;;;;;52.67;48.33;;;;;;;0.22;100.00;102934.66;5052463;28;20121;-80
2023/01/24 06:38:44;;;;;;;51.78;47.75;;;;;;;0.13;100.00;102942.16;5050911;28;20053;-80
2023/01/24 06:41:16;;;;;;;51.35;47.33;;;;;;;0.21;100.00;102942.56;5059351;28;20041;-79
2023/01/24 06:43:45;;;;;;;51.42;46.78;;;;;;;0.20;100.00;102946.13;5060442;28;20128;-80
2023/01/24 06:46:12;;;;;;;54.03;49.25;;;;;;;0.23;100.00;102944.19;5058637;28;20048;-80
2023/01/24 06:48:39;;;;;;;57.47;52.35;;;;;;;0.33;100.00;102948.91;5059986;28;20573;-79
2023/01/24 06:51:06;;;;;;;103.95;79.40;;;;;;;0.31;100.00;102953.38;5057796;28;20052;-79
2023/01/24 06:53:33;;;;;;;67.43;60.65;;;;;;;0.34;100.00;102959.28;5046845;28;20502;-80
2023/01/24 06:56:00;;;;;;;56.50;51.60;;;;;;;0.36;100.00;102951.34;5059428;28;20140;-80
2023/01/24 06:58:27;;;;;;;61.65;56.00;;;;;;;0.34;100.00;102951.44;5054428;28;20056;-79
2023/01/24 07:00:55;;;;;;;53.55;49.08;;;;;;;0.42;100.00;102958.84;5049768;28;20122;-79
2023/01/24 07:03:22;;;;;;;56.88;52.08;;;;;;;0.29;100.00;102961.31;5055634;28;20088;-79
2023/01/24 07:05:49;;;;;;;60.58;55.50;;;;;;;0.39;100.00;102954.66;5050775;28;20520;-80
2023/01/24 07:08:17;;;;;;;58.60;53.42;;;;;;;0.34;100.00;102963.69;5052274;28;20590;-80
2023/01/24 07:10:44;;;;;;;56.13;51.33;;;;;;;0.41;100.00;102963.25;5051741;28;20429;-80
2023/01/24 07:13:10;;;;;;;57.05;51.75;;;;;;;0.41;100.00;102957.16;5054624;28;20513;-79
2023/01/24 07:15:37;;;;;;;59.17;53.83;;;;;;;0.44;100.00;102963.06;5056435;28;20071;-79
2023/01/24 07:18:11;;;;;;;57.45;52.70;;;;;;;0.64;100.00;102961.13;5055810;28;20052;-79
2023/01/24 07:20:39;;;;;;;66.40;60.42;;;;;;;0.41;100.00;102957.16;5055204;28;20071;-80
2023/01/24 07:23:06;;;;;;;57.75;52.92;;;;;;;0.51;100.00;102970.56;5056481;28;20071;-79
2023/01/24 07:25:34;;;;;;;56.13;51.55;;;;;;;0.55;100.00;102961.66;5058022;28;20068;-80
2023/01/24 07:28:02;;;;;;;55.85;51.20;;;;;;;0.49;100.00;102962.00;5057529;28;20045;-79
2023/01/24 07:30:29;;;;;;;55.95;51.60;;;;;;;0.67;100.00;102942.66;5060689;28;20599;-79
2023/01/24 07:32:56;;;;;;;56.15;51.55;;;;;;;0.39;100.00;102953.78;5059233;28;20049;-80
2023/01/24 07:35:24;;;;;;;57.63;52.65;;;;;;;0.69;100.00;102956.47;5059265;28;20415;-79
2023/01/24 07:37:50;;;;;;;59.33;53.95;;;;;;;0.62;100.00;102950.75;5059561;28;20496;-79
2023/01/24 07:40:17;;;;;;;55.67;50.97;;;;;;;0.53;100.00;102955.66;5059005;28;20074;-80
2023/01/24 07:42:44;;;;;;;58.53;53.42;;;;;;;0.58;100.00;102954.47;5058041;28;20118;-79
2023/01/24 07:45:11;;;;;;;56.13;51.50;;;;;;;0.62;100.00;102962.97;5058598;28;20411;-79
2023/01/24 07:47:38;;;;;;;56.03;51.25;;;;;;;0.55;100.00;102957.25;5058298;28;20048;-80
2023/01/24 07:50:05;;;;;;;56.53;51.88;;;;;;;0.44;100.00;102954.38;5053420;28;20506;-79
2023/01/24 07:52:33;;;;;;;57.40;52.60;;;;;;;0.52;100.00;102964.44;5058649;28;20110;-79
2023/01/24 07:55:00;;;;;;;55.78;51.08;;;;;;;0.48;100.00;102955.88;5054734;28;20044;-79
2023/01/24 07:57:27;;;;;;;56.83;52.38;;;;;;;0.61;100.00;102958.69;5054758;28;20048;-79
2023/01/24 07:59:53;;;;;;;58.80;53.90;;;;;;;0.52;100.00;102951.34;5056335;28;20107;-79
2023/01/24 08:02:20;;;;;;;58.75;53.95;;;;;;;0.65;100.00;102949.72;5056997;28;20049;-79
2023/01/24 08:04:47;;;;;;;58.17;53.15;;;;;;;0.82;100.00;102947.00;5054828;28;20142;-79
2023/01/24 08:07:20;;;;;;;55.60;50.50;;;;;;;0.79;100.00;102948.97;5059121;28;20053;-79
2023/01/24 08:09:49;;;;;;;56.72;52.03;;;;;;;0.67;100.00;102947.88;5058220;28;20049;-79
2023/01/24 08:12:15;;;;;;;57.28;52.30;;;;;;;0.75;100.00;102957.91;5057860;28;20079;-80
2023/01/24 08:14:42;;;;;;;56.13;51.08;;;;;;;0.81;100.00;102944.47;5057990;28;20052;-79
2023/01/24 08:17:10;;;;;;;54.95;50.20;;;;;;;0.90;100.00;102944.78;5056111;28;20111;-80
2023/01/24 08:19:37;;;;;;;58.28;52.83;;;;;;;0.90;100.00;102949.16;5053134;28;20422;-79
2023/01/24 08:22:04;;;;;;;69.25;62.38;;;;;;;0.92;100.00;102944.69;5052352;28;20164;-79
2023/01/24 08:24:31;;;;;;;58.13;53.42;;;;;;;0.96;100.00;102943.56;5049833;28;20115;-80
2023/01/24 08:27:00;;;;;;;58.30;53.33;;;;;;;1.01;100.00;102945.94;5056421;28;20052;-79
2023/01/24 08:29:26;;;;;;;58.75;53.47;;;;;;;1.00;100.00;102946.84;5059187;28;20111;-79
2023/01/24 08:31:53;;;;;;;55.75;50.80;;;;;;;1.07;100.00;102946.44;5056611;28;20615;-79
2023/01/24 08:34:20;;;;;;;53.30;48.75;;;;;;;0.96;100.00;102948.81;5054597;28;20037;-79
2023/01/24 08:36:47;;;;;;;56.75;52.15;;;;;;;0.93;100.00;102950.78;5050335;28;20049;-79
2023/01/24 08:39:13;;;;;;;60.58;55.30;;;;;;;0.96;100.00;102956.66;5049808;28;20508;-79
2023/01/24 08:41:45;;;;;;;59.47;53.72;;;;;;;0.88;100.00;102948.44;5055613;28;20088;-79
2023/01/24 08:44:13;;;;;;;57.00;51.63;;;;;;;1.01;100.00;102961.66;5056082;28;20052;-79
2023/01/24 08:46:40;;;;;;;56.63;51.92;;;;;;;1.06;100.00;102954.34;5058980;28;20377;-79
2023/01/24 08:49:07;;;;;;;58.67;53.08;;;;;;;1.17;100.00;102954.56;5053454;28;20107;-80
2023/01/24 08:51:34;;;;;;;54.25;49.75;;;;;;;0.87;100.00;102957.19;5061447;28;20468;-79
2023/01/24 08:54:01;;;;;;;54.53;49.10;;;;;;;0.78;100.00;102957.72;5057903;28;20045;-79
2023/01/24 08:56:27;;;;;;;52.60;48.20;;;;;;;0.79;100.00;102960.25;5052545;28;20057;-79
2023/01/24 08:58:54;;;;;;;82.22;72.28;;;;;;;0.89;100.00;102955.34;5052763;28;20044;-79
2023/01/24 09:01:22;;;;;;;59.88;54.25;;;;;;;0.88;100.00;102956.28;5053371;28;20048;-79
2023/01/24 09:03:49;;;;;;;59.55;53.40;;;;;;;0.93;100.00;102951.59;5059929;28;20048;-79
2023/01/24 09:06:16;;;;;;;55.97;50.83;;;;;;;0.94;100.00;102949.81;5054051;28;20136;-80
2023/01/24 09:08:43;;;;;;;56.22;51.50;;;;;;;0.77;100.00;102945.56;5049988;28;20600;-79
2023/01/24 09:11:10;;;;;;;54.95;49.67;;;;;;;0.97;100.00;102953.13;5059900;28;20480;-79
2023/01/24 09:13:36;;;;;;;54.58;49.50;;;;;;;1.12;100.00;102954.00;5050352;28;20041;-79
2023/01/24 09:16:03;;;;;;;53.05;48.75;;;;;;;1.03;100.00;102954.53;5054133;28;20115;-80
2023/01/24 09:18:31;;;;;;;56.65;51.65;;;;;;;1.02;100.00;102945.00;5051839;28;20057;-79
2023/01/24 09:21:02;;;;;;;55.75;51.03;;;;;;;1.44;100.00;102946.88;5050049;28;20076;-79
2023/01/24 09:23:29;;;;;;;55.40;50.70;;;;;;;1.69;100.00;102946.22;5051939;28;20091;-79
2023/01/24 09:25:56;;;;;;;57.70;52.83;;;;;;;1.55;100.00;102936.59;5058018;28;20118;-80
2023/01/24 09:28:23;;;;;;;54.25;49.55;;;;;;;1.45;100.00;102935.44;5063833;28;20045;-79
2023/01/24 09:30:51;;;;;;;58.85;53.88;;;;;;;1.42;100.00;102930.38;5056769;28;20568;-79
2023/01/24 09:33:19;;;;;;;57.83;52.78;;;;;;;1.43;100.00;102931.25;5057981;28;20049;-80
2023/01/24 09:35:54;;;;;;;57.30;52.35;;;;;;;1.23;100.00;102935.88;5056976;28;20763;-79
2023/01/24 09:38:22;;;;;;;55.42;50.50;;;;;;;1.20;100.00;102932.63;5052645;28;20494;-79
2023/01/24 09:40:58;;;;;;;56.47;51.63;;;;;;;1.25;100.00;102934.03;5047167;28;20108;-79
2023/01/24 09:43:46;;;;;;;55.10;50.70;;;;;;;1.28;100.00;102933.84;5058175;28;20085;-79
2023/01/24 09:46:25;;;;;;;56.67;52.08;;;;;;;1.29;100.00;102934.69;5058699;28;20037;-80
2023/01/24 09:49:00;;;;;;;51.13;47.22;;;;;;;1.33;100.00;102937.03;5059113;28;20052;-80
2023/01/24 09:51:31;;;;;;;53.67;49.47;;;;;;;1.10;100.00;102938.41;5059030;28;20076;-79
2023/01/24 09:54:02;;;;;;;54.63;50.28;;;;;;;1.27;100.00;102926.06;5047230;28;20559;-79
2023/01/24 09:56:34;;;;;;;50.13;46.50;;;;;;;1.26;100.00;102921.78;5051833;28;20191;-79
2023/01/24 09:59:14;;;;;;;53.33;48.80;;;;;;;1.35;100.00;102923.84;5055650;28;20053;-79
2023/01/24 10:01:41;;;;;;;51.38;47.72;;;;;;;1.25;100.00;102927.97;5053235;28;20505;-80
2023/01/24 10:04:16;;;;;;;51.47;46.78;;;;;;;1.27;100.00;102926.94;5057807;28;20399;-80
2023/01/24 10:06:55;;;;;;;48.95;44.72;;;;;;;1.58;100.00;102938.19;5056893;28;20589;-80
2023/01/24 10:09:33;;;;;;;51.90;47.83;;;;;;;1.32;100.00;102924.03;5055566;28;20075;-80
2023/01/24 10:12:07;;;;;;;52.95;48.33;;;;;;;1.44;100.00;102931.16;5053258;28;20072;-79
2023/01/24 10:14:48;;;;;;;52.58;48.42;;;;;;;1.33;100.00;102936.19;5056193;28;20041;-80
2023/01/24 10:17:40;;;;;;;49.78;45.85;;;;;;;1.33;100.00;102930.94;5053564;28;20391;-79
2023/01/24 10:20:18;;;;;;;55.35;49.97;;;;;;;1.49;100.00;102928.28;5054491;28;20079;-80
2023/01/24 10:23:06;;;;;;;57.45;51.65;;;;;;;1.42;100.00;102927.78;5047564;28;20114;-80
2023/01/24 10:25:39;;;;;;;51.40;47.30;;;;;;;1.24;100.00;102915.78;5056896;28;20045;-79
2023/01/24 10:28:19;;;;;;;51.85;47.75;;;;;;;1.25;100.00;102922.72;5056415;28;20081;-80
2023/01/24 10:30:52;;;;;;;51.58;47.22;;;;;;;1.42;100.00;102919.91;5055786;28;20076;-79
2023/01/24 10:33:20;;;;;;;52.03;48.28;;;;;;;1.23;100.00;102921.97;5046565;28;20045;-80
2023/01/24 10:35:59;;;;;;;51.72;47.67;;;;;;;1.35;100.00;102922.06;5056881;28;20046;-79
2023/01/24 10:38:28;;;;;;;51.97;48.13;;;;;;;1.38;100.00;102908.78;5052398;28;20052;-80
2023/01/24 10:41:00;;;;;;;49.42;45.53;;;;;;;1.23;100.00;102908.88;5049372;28;20072;-80
2023/01/24 10:43:31;;;;;;;49.63;45.92;;;;;;;1.16;100.00;102910.19;5051717;28;20443;-78
2023/01/24 10:46:13;;;;;;;49.38;45.60;;;;;;;1.18;100.00;102905.69;5051518;28;20501;-80
2023/01/24 10:48:43;;;;;;;50.08;46.03;;;;;;;1.28;100.00;102906.84;5052503;28;20072;-80
2023/01/24 10:51:12;;;;;;;49.67;45.38;;;;;;;1.35;100.00;102895.88;5056178;28;20053;-79
2023/01/24 10:53:41;;;;;;;50.95;47.35;;;;;;;1.45;100.00;102897.94;5053595;28;20041;-80
2023/01/24 10:56:09;;;;;;;50.40;47.00;;;;;;;3.17;100.00;102885.13;5053833;28;20053;-80
2023/01/24 10:58:38;;;;;;;51.05;47.22;;;;;;;1.27;100.00;102892.03;5054057;28;20073;-79
2023/01/24 11:01:09;;;;;;;49.13;45.42;;;;;;;1.23;100.00;102891.38;5055310;28;20041;-79
2023/01/24 11:03:40;;;;;;;49.78;45.88;;;;;;;1.23;100.00;102883.53;5053797;28;20060;-80
2023/01/24 11:06:23;;;;;;;50.92;46.95;;;;;;;1.35;100.00;102880.16;5055800;28;20091;-79
2023/01/24 11:08:56;;;;;;;48.88;45.25;;;;;;;1.36;100.00;102879.25;5057302;28;20132;-80
2023/01/24 11:11:26;;;;;;;49.50;45.83;;;;;;;1.45;100.00;102879.63;5058576;28;20071;-79
2023/01/24 11:13:58;;;;;;;50.58;46.85;;;;;;;1.42;100.00;102874.56;5057803;28;20053;-80
2023/01/24 11:16:31;;;;;;;49.13;45.42;;;;;;;1.37;100.00;102869.63;5058766;28;20106;-80
2023/01/24 11:19:00;;;;;;;50.20;46.58;;;;;;;1.42;100.00;102864.91;5049982;28;20041;-79
2023/01/24 11:21:28;;;;;;;49.00;45.45;;;;;;;1.34;100.00;102859.31;5055674;28;20049;-79
2023/01/24 11:24:15;;;;;;;48.30;44.90;;;;;;;1.34;100.00;102854.94;5047031;28;20060;-79
2023/01/24 11:26:54;;;;;;;49.85;45.92;;;;;;;1.46;100.00;102858.59;5051967;28;20127;-79
2023/01/24 11:29:22;;;;;;;47.80;44.33;;;;;;;1.41;100.00;102858.00;5057744;28;20106;-79
2023/01/24 11:31:51;;;;;;;48.83;45.25;;;;;;;1.48;100.00;102861.94;5058322;28;20072;-79
2023/01/24 11:34:41;;;;;;;49.83;46.28;;;;;;;1.51;100.00;102853.91;5054844;28;20067;-79
2023/01/24 11:37:23;;;;;;;52.22;48.45;;;;;;;1.48;100.00;102855.84;5056324;28;20045;-79
2023/01/24 11:40:00;;;;;;;50.97;47.15;;;;;;;1.44;100.00;102846.50;5049596;28;20491;-80
2023/01/24 11:42:36;;;;;;;49.38;46.00;;;;;;;1.38;100.00;102852.97;5046658;28;20053;-80
2023/01/24 11:45:26;;;;;;;50.03;46.58;;;;;;;1.30;100.00;102844.72;5055753;28;20350;-80
2023/01/24 11:48:07;;;;;;;51.47;47.67;;;;;;;1.44;100.00;102852.59;5051471;28;20068;-80
2023/01/24 11:50:43;;;;;;;53.30;49.22;;;;;;;1.22;100.00;102847.81;5051869;28;20494;-80
2023/01/24 11:53:47;;;;;;;47.33;43.80;;;;;;;1.37;100.00;102836.41;5047510;28;20106;-80
2023/01/24 11:56:23;;;;;;;48.83;45.45;;;;;;;1.58;100.00;102841.28;5033615;28;20049;-80
2023/01/24 11:59:19;;;;;;;49.78;46.00;;;;;;;1.38;100.00;102851.19;5051389;28;20055;-80
2023/01/24 12:01:55;;;;;;;53.13;49.25;;;;;;;1.36;100.00;102845.22;5051660;28;20107;-80
2023/01/24 12:05:15;;;;;;;50.60;46.80;;;;;;;1.49;100.00;102841.84;5053713;28;20049;-79
2023/01/24 12:07:56;;;;;;;55.03;50.72;;;;;;;1.52;100.00;102844.28;5013814;28;20605;-80
2023/01/24 12:10:30;;;;;;;50.88;47.08;;;;;;;1.37;100.00;102849.50;5042749;28;20053;-80
2023/01/24 12:13:05;;;;;;;52.63;48.83;;;;;;;1.50;100.00;102851.38;5048422;28;20459;-79
2023/01/24 12:15:39;;;;;;;54.05;50.10;;;;;;;1.55;100.00;102847.53;5055777;28;20042;-79
2023/01/24 12:18:25;;;;;;;50.83;47.47;;;;;;;1.61;100.00;102843.69;5055365;28;20045;-80
2023/01/24 12:20:59;;;;;;;51.35;47.92;;;;;;;1.67;100.00;102838.06;5058789;28;20048;-80
2023/01/24 12:23:35;;;;;;;49.47;46.17;;;;;;;1.82;100.00;102842.34;5047518;28;20525;-79